Time;durP1;ratioP1;P1;durP2;ratioP2;P2;SDS_P1;SDS_P2;PMS_P1;PMS_P2;Temp;Humidity;BMP_temperature;BMP_pressure;BME280_temperature;BME280_humidity;BME280_pressure;Samples;Min_cycle;Max_cycle;Signal;HPM_P1;HPM_P2
2021/04/17 00:00:24;;;;;;;9.02;1.75;;;;;;;;;;4985571;28;20104;-58
2021/04/17 00:02:50;;;;;;;6.57;1.48;;;;;;;;;;4987628;28;20034;-57
2021/04/17 00:05:16;;;;;;;8.77;1.70;;;;;;;;;;4989466;28;20042;-59
2021/04/17 00:07:42;;;;;;;12.32;1.75;;;;;;;;;;4986419;28;20045;-57
2021/04/17 00:10:08;;;;;;;6.05;1.60;;;;;;;;;;4987589;28;20033;-58
2021/04/17 00:12:34;;;;;;;9.18;1.80;;;;;;;;;;4986711;28;20881;-59
2021/04/17 00:15:00;;;;;;;7.45;1.58;;;;;;;;;;4987656;28;20053;-58
2021/04/17 00:17:28;;;;;;;14.18;1.60;;;;;;;;;;4986188;28;20104;-59
2021/04/17 00:19:54;;;;;;;9.13;1.60;;;;;;;;;;4968638;28;20111;-58
2021/04/17 00:22:20;;;;;;;10.52;1.63;;;;;;;;;;4969371;28;20045;-59
2021/04/17 00:24:46;;;;;;;8.95;1.40;;;;;;;;;;4987079;28;20042;-58
2021/04/17 00:27:12;;;;;;;8.27;1.45;;;;;;;;;;4986513;28;20046;-57
2021/04/17 00:29:38;;;;;;;11.30;1.60;;;;;;;;;;4985537;28;20048;-59
2021/04/17 00:32:05;;;;;;;7.50;1.63;;;;;;;;;;4987578;28;20058;-58
2021/04/17 00:34:31;;;;;;;11.32;1.85;;;;;;;;;;4986846;28;20057;-59
2021/04/17 00:36:57;;;;;;;14.98;1.92;;;;;;;;;;4987666;28;20041;-59
2021/04/17 00:39:23;;;;;;;6.80;1.70;;;;;;;;;;4971908;28;20054;-57
2021/04/17 00:41:49;;;;;;;18.30;2.95;;;;;;;;;;4984061;28;20060;-58
2021/04/17 00:44:15;;;;;;;5.57;1.50;;;;;;;;;;4988515;28;20088;-57
2021/04/17 00:46:41;;;;;;;13.15;1.92;;;;;;;;;;4986185;28;20065;-58
2021/04/17 00:49:09;;;;;;;6.43;1.40;;;;;;;;;;4986990;28;21348;-57
2021/04/17 00:51:35;;;;;;;12.95;1.92;;;;;;;;;;4984187;28;20065;-56
2021/04/17 00:54:01;;;;;;;7.85;1.63;;;;;;;;;;4987473;28;20038;-58
2021/04/17 00:56:27;;;;;;;9.18;1.73;;;;;;;;;;4987315;28;20395;-58
2021/04/17 00:58:53;;;;;;;9.20;3.03;;;;;;;;;;4988207;28;20141;-57
2021/04/17 01:01:20;;;;;;;4.88;1.30;;;;;;;;;;4987059;28;20038;-60
2021/04/17 01:03:46;;;;;;;6.75;1.33;;;;;;;;;;4987793;28;20034;-58
2021/04/17 01:06:19;;;;;;;8.02;1.55;;;;;;;;;;4985743;28;20048;-57
2021/04/17 01:09:11;;;;;;;6.07;1.50;;;;;;;;;;4977733;28;20419;-57
2021/04/17 01:11:58;;;;;;;11.45;1.70;;;;;;;;;;4971079;28;20050;-57
2021/04/17 01:14:25;;;;;;;6.20;1.60;;;;;;;;;;4976636;28;20156;-57
2021/04/17 01:16:51;;;;;;;5.78;1.60;;;;;;;;;;4977032;28;20046;-57
2021/04/17 01:19:35;;;;;;;13.60;1.67;;;;;;;;;;4975780;28;20081;-53
2021/04/17 01:22:02;;;;;;;9.10;1.73;;;;;;;;;;4976852;28;20049;-57
2021/04/17 01:24:30;;;;;;;9.95;1.95;;;;;;;;;;4958299;28;20097;-53
2021/04/17 01:26:56;;;;;;;11.38;2.38;;;;;;;;;;4976627;28;20519;-55
2021/04/17 01:29:22;;;;;;;9.18;1.80;;;;;;;;;;4974727;28;20048;-57
2021/04/17 01:31:49;;;;;;;10.23;1.88;;;;;;;;;;4977235;28;20432;-58
2021/04/17 01:34:15;;;;;;;5.93;1.58;;;;;;;;;;4978863;28;20041;-55
2021/04/17 01:36:41;;;;;;;5.80;2.10;;;;;;;;;;4979841;28;20045;-56
2021/04/17 01:39:11;;;;;;;8.30;2.08;;;;;;;;;;4980308;28;20604;-58
2021/04/17 01:41:40;;;;;;;11.02;2.10;;;;;;;;;;4981388;28;20120;-58
2021/04/17 01:44:11;;;;;;;16.98;2.28;;;;;;;;;;4987880;28;20045;-57
2021/04/17 01:46:41;;;;;;;13.02;2.05;;;;;;;;;;4988639;28;20042;-59
2021/04/17 01:49:09;;;;;;;9.38;1.92;;;;;;;;;;4989319;28;20042;-58
2021/04/17 01:51:36;;;;;;;5.63;1.60;;;;;;;;;;4987501;28;20050;-59
2021/04/17 01:54:06;;;;;;;13.77;2.85;;;;;;;;;;4990111;28;20184;-57
2021/04/17 01:56:32;;;;;;;11.80;1.88;;;;;;;;;;4988673;28;20903;-58
2021/04/17 01:59:01;;;;;;;19.33;2.45;;;;;;;;;;4987849;28;20042;-58
2021/04/17 02:01:26;;;;;;;8.38;2.28;;;;;;;;;;4986510;28;20116;-58
2021/04/17 02:03:52;;;;;;;9.60;2.20;;;;;;;;;;4990800;28;22006;-55
2021/04/17 02:06:18;;;;;;;16.50;3.80;;;;;;;;;;4989660;28;20045;-58
2021/04/17 02:08:44;;;;;;;10.82;1.83;;;;;;;;;;4988400;28;20030;-58
2021/04/17 02:11:10;;;;;;;8.82;2.10;;;;;;;;;;4989655;28;20038;-56
2021/04/17 02:13:37;;;;;;;8.77;2.40;;;;;;;;;;4988488;28;20313;-59
2021/04/17 02:16:23;;;;;;;29.48;4.30;;;;;;;;;;4970333;28;20129;-56
2021/04/17 02:18:57;;;;;;;13.80;3.17;;;;;;;;;;4955236;28;20496;-58
2021/04/17 02:21:28;;;;;;;21.20;2.75;;;;;;;;;;4985973;28;20046;-58
2021/04/17 02:23:54;;;;;;;11.30;2.45;;;;;;;;;;4990630;28;20165;-57
2021/04/17 02:26:21;;;;;;;17.02;2.75;;;;;;;;;;4967738;28;20053;-59
2021/04/17 02:28:47;;;;;;;22.88;3.10;;;;;;;;;;4988458;28;20567;-59
2021/04/17 02:31:12;;;;;;;9.93;2.75;;;;;;;;;;4991298;28;20126;-57
2021/04/17 02:33:38;;;;;;;13.27;2.83;;;;;;;;;;4987811;28;20038;-59
2021/04/17 02:36:04;;;;;;;16.40;3.53;;;;;;;;;;4978351;28;20086;-59
2021/04/17 02:38:32;;;;;;;22.23;3.03;;;;;;;;;;4988559;28;20153;-58
2021/04/17 02:40:57;;;;;;;23.85;3.63;;;;;;;;;;4987384;28;20054;-58
2021/04/17 02:43:23;;;;;;;12.90;3.22;;;;;;;;;;4989257;28;20034;-58
2021/04/17 02:45:49;;;;;;;18.10;3.63;;;;;;;;;;4989392;28;20044;-57
2021/04/17 02:48:15;;;;;;;19.23;3.63;;;;;;;;;;4989407;28;20088;-58
2021/04/17 02:50:41;;;;;;;16.92;4.15;;;;;;;;;;4981830;28;20081;-57
2021/04/17 02:53:07;;;;;;;12.95;3.75;;;;;;;;;;4967935;28;20038;-56
2021/04/17 02:55:33;;;;;;;24.30;4.32;;;;;;;;;;4988841;28;20965;-55
2021/04/17 02:57:58;;;;;;;13.00;4.00;;;;;;;;;;4988932;28;20038;-56
2021/04/17 03:00:24;;;;;;;22.98;4.35;;;;;;;;;;4991078;28;20380;-56
2021/04/17 03:02:53;;;;;;;20.30;4.55;;;;;;;;;;5005603;28;20097;-54
2021/04/17 03:05:20;;;;;;;17.35;5.10;;;;;;;;;;5002722;28;20500;-52
2021/04/17 03:07:46;;;;;;;20.23;5.25;;;;;;;;;;4996381;28;20049;-57
2021/04/17 03:10:12;;;;;;;18.90;4.85;;;;;;;;;;4986100;28;20516;-57
2021/04/17 03:12:38;;;;;;;21.92;4.93;;;;;;;;;;4982146;28;20722;-56
2021/04/17 03:15:05;;;;;;;20.88;5.38;;;;;;;;;;4987786;28;20038;-60
2021/04/17 03:17:31;;;;;;;21.90;4.50;;;;;;;;;;4984851;28;20564;-57
2021/04/17 03:19:57;;;;;;;25.58;5.00;;;;;;;;;;4985638;28;20048;-57
2021/04/17 03:22:23;;;;;;;24.05;5.03;;;;;;;;;;4984341;28;20054;-56
2021/04/17 03:24:49;;;;;;;26.10;4.70;;;;;;;;;;4977470;28;20034;-56
2021/04/17 03:27:15;;;;;;;30.27;5.10;;;;;;;;;;4984380;28;20088;-57
2021/04/17 03:29:41;;;;;;;30.80;5.95;;;;;;;;;;4985684;28;20034;-58
2021/04/17 03:32:07;;;;;;;20.25;4.78;;;;;;;;;;4987130;28;20422;-57
2021/04/17 03:34:32;;;;;;;26.77;5.85;;;;;;;;;;4984306;28;20045;-55
2021/04/17 03:36:58;;;;;;;29.20;6.63;;;;;;;;;;4985031;28;20043;-54
2021/04/17 03:39:24;;;;;;;21.98;5.97;;;;;;;;;;4984833;28;20038;-60
2021/04/17 03:41:50;;;;;;;27.30;7.35;;;;;;;;;;4984401;28;20519;-56
2021/04/17 03:44:16;;;;;;;25.38;7.38;;;;;;;;;;4985146;28;20125;-57
2021/04/17 03:46:42;;;;;;;23.10;7.65;;;;;;;;;;4981812;28;20133;-56
2021/04/17 03:49:08;;;;;;;25.25;7.82;;;;;;;;;;4984618;28;20066;-58
2021/04/17 03:51:34;;;;;;;27.73;8.05;;;;;;;;;;4984321;28;20103;-56
2021/04/17 03:54:00;;;;;;;22.88;6.35;;;;;;;;;;4967337;28;20113;-55
2021/04/17 03:56:26;;;;;;;28.88;6.50;;;;;;;;;;4984181;28;20038;-54
2021/04/17 03:58:52;;;;;;;24.50;6.50;;;;;;;;;;4984824;28;20038;-54
2021/04/17 04:01:18;;;;;;;17.92;6.78;;;;;;;;;;4985574;28;20038;-58
2021/04/17 04:03:44;;;;;;;20.98;6.30;;;;;;;;;;4982824;28;20108;-55
2021/04/17 04:06:10;;;;;;;29.17;6.57;;;;;;;;;;4976213;28;20160;-58
2021/04/17 04:08:36;;;;;;;31.27;6.55;;;;;;;;;;4983376;28;20042;-56
2021/04/17 04:11:02;;;;;;;32.50;6.50;;;;;;;;;;4984835;28;20052;-56
2021/04/17 04:13:28;;;;;;;21.83;6.15;;;;;;;;;;4986298;28;20046;-56
2021/04/17 04:15:54;;;;;;;21.23;6.10;;;;;;;;;;4985902;28;20149;-56
2021/04/17 04:18:26;;;;;;;28.63;6.55;;;;;;;;;;4984881;28;20042;-58
2021/04/17 04:20:52;;;;;;;24.90;6.38;;;;;;;;;;4987689;28;20057;-55
2021/04/17 04:23:18;;;;;;;32.88;7.28;;;;;;;;;;4985742;28;20065;-57
2021/04/17 04:25:43;;;;;;;38.53;6.78;;;;;;;;;;4986071;28;20030;-56
2021/04/17 04:28:09;;;;;;;25.38;6.68;;;;;;;;;;4986642;28;20062;-57
2021/04/17 04:30:35;;;;;;;28.88;7.78;;;;;;;;;;4983800;28;20050;-56
2021/04/17 04:33:01;;;;;;;23.70;8.13;;;;;;;;;;4976526;28;20086;-55
2021/04/17 04:35:27;;;;;;;37.70;8.50;;;;;;;;;;4986821;28;20120;-55
2021/04/17 04:37:53;;;;;;;40.05;8.55;;;;;;;;;;4987879;28;20155;-55
2021/04/17 04:40:19;;;;;;;35.08;8.18;;;;;;;;;;4986733;28;20046;-56
2021/04/17 04:42:45;;;;;;;28.27;7.22;;;;;;;;;;4988096;28;20057;-53
2021/04/17 04:45:11;;;;;;;35.53;8.50;;;;;;;;;;4985958;28;20088;-56
2021/04/17 04:47:38;;;;;;;22.52;7.18;;;;;;;;;;4986377;28;20034;-54
2021/04/17 04:50:04;;;;;;;24.13;7.32;;;;;;;;;;4983455;28;20876;-52
2021/04/17 04:52:30;;;;;;;23.58;7.03;;;;;;;;;;4983134;28;20046;-56
2021/04/17 04:54:56;;;;;;;22.58;6.97;;;;;;;;;;4984029;28;20546;-53
2021/04/17 04:57:22;;;;;;;23.63;7.30;;;;;;;;;;4984455;28;20121;-55
2021/04/17 04:59:48;;;;;;;21.73;8.02;;;;;;;;;;4986556;28;20056;-53
2021/04/17 05:02:14;;;;;;;30.88;8.45;;;;;;;;;;4984047;28;20257;-56
2021/04/17 05:04:40;;;;;;;35.58;10.05;;;;;;;;;;4972845;28;20041;-53
2021/04/17 05:07:06;;;;;;;31.95;9.82;;;;;;;;;;4984161;28;20541;-53
2021/04/17 05:09:32;;;;;;;28.60;10.20;;;;;;;;;;4985260;28;20043;-53
2021/04/17 05:11:58;;;;;;;30.42;9.95;;;;;;;;;;4982991;28;20062;-56
2021/04/17 05:14:23;;;;;;;33.58;9.52;;;;;;;;;;4985210;28;20793;-55
2021/04/17 05:16:49;;;;;;;34.33;10.13;;;;;;;;;;4967563;28;20042;-53
2021/04/17 05:19:15;;;;;;;28.20;10.43;;;;;;;;;;4982635;28;20561;-56
2021/04/17 05:21:42;;;;;;;34.92;9.52;;;;;;;;;;4983411;28;20053;-55
2021/04/17 05:24:08;;;;;;;22.90;9.43;;;;;;;;;;4984936;28;20072;-52
2021/04/17 05:26:33;;;;;;;30.35;10.00;;;;;;;;;;4984661;28;20121;-55
2021/04/17 05:29:03;;;;;;;21.38;8.68;;;;;;;;;;4982413;28;20034;-56
2021/04/17 05:31:29;;;;;;;30.10;9.82;;;;;;;;;;4983204;28;20034;-55
2021/04/17 05:33:55;;;;;;;30.80;9.23;;;;;;;;;;4985240;28;20117;-56
2021/04/17 05:36:21;;;;;;;34.15;10.07;;;;;;;;;;4984548;28;20042;-55
2021/04/17 05:38:47;;;;;;;31.13;9.95;;;;;;;;;;4984641;28;20042;-55
2021/04/17 05:41:13;;;;;;;34.55;9.35;;;;;;;;;;4985295;28;20065;-56
2021/04/17 05:43:39;;;;;;;37.97;9.73;;;;;;;;;;4983322;28;20042;-53
2021/04/17 05:46:05;;;;;;;36.47;10.38;;;;;;;;;;4982068;28;20050;-56
2021/04/17 05:48:31;;;;;;;45.80;11.48;;;;;;;;;;4981544;28;20038;-54
2021/04/17 05:50:58;;;;;;;40.75;10.25;;;;;;;;;;4980308;28;20627;-54
2021/04/17 05:53:24;;;;;;;36.90;10.13;;;;;;;;;;4984841;28;20478;-55
2021/04/17 05:55:50;;;;;;;32.38;10.00;;;;;;;;;;4986789;28;20049;-58
2021/04/17 05:58:16;;;;;;;29.13;10.20;;;;;;;;;;4984909;28;20034;-56
2021/04/17 06:00:42;;;;;;;43.90;10.27;;;;;;;;;;4967446;28;20531;-55
2021/04/17 06:03:08;;;;;;;45.10;9.82;;;;;;;;;;4984801;28;20049;-53
2021/04/17 06:05:34;;;;;;;33.90;9.77;;;;;;;;;;4987024;28;20041;-52
2021/04/17 06:08:00;;;;;;;36.65;9.48;;;;;;;;;;4987152;28;20088;-55
2021/04/17 06:10:26;;;;;;;47.60;9.85;;;;;;;;;;4984674;28;20057;-52
2021/04/17 06:12:51;;;;;;;44.95;9.93;;;;;;;;;;4985291;28;20058;-54
2021/04/17 06:15:17;;;;;;;46.75;9.80;;;;;;;;;;4984909;28;20081;-55
2021/04/17 06:17:43;;;;;;;35.17;9.73;;;;;;;;;;4987382;28;20034;-55
2021/04/17 06:20:09;;;;;;;42.90;10.07;;;;;;;;;;4988018;28;20053;-57
2021/04/17 06:22:35;;;;;;;46.70;11.48;;;;;;;;;;4987650;28;20410;-56
2021/04/17 06:25:01;;;;;;;47.25;10.98;;;;;;;;;;4992050;28;20038;-53
2021/04/17 06:27:27;;;;;;;34.65;10.77;;;;;;;;;;4987991;28;20049;-53
2021/04/17 06:29:53;;;;;;;44.33;13.00;;;;;;;;;;4989181;28;20042;-53
2021/04/17 06:32:19;;;;;;;44.38;12.27;;;;;;;;;;4988918;28;20061;-54
2021/04/17 06:34:45;;;;;;;52.65;14.02;;;;;;;;;;4992225;28;20037;-57
2021/04/17 06:37:11;;;;;;;45.15;13.38;;;;;;;;;;4992105;28;20100;-54
2021/04/17 06:39:37;;;;;;;38.83;11.43;;;;;;;;;;4993507;28;20111;-56
2021/04/17 06:42:03;;;;;;;52.75;12.98;;;;;;;;;;4988790;28;20511;-52
2021/04/17 06:44:31;;;;;;;39.72;12.10;;;;;;;;;;4987610;28;20042;-55
2021/04/17 06:46:59;;;;;;;36.78;11.25;;;;;;;;;;4979443;28;20073;-56
2021/04/17 06:49:26;;;;;;;50.17;14.00;;;;;;;;;;4987438;28;20042;-56
2021/04/17 06:51:53;;;;;;;36.05;10.52;;;;;;;;;;4987391;28;20057;-56
2021/04/17 06:54:20;;;;;;;54.95;11.35;;;;;;;;;;4968408;28;20042;-56
2021/04/17 06:56:47;;;;;;;39.58;10.85;;;;;;;;;;4988136;28;20030;-54
2021/04/17 06:59:14;;;;;;;46.40;11.65;;;;;;;;;;4985370;28;20042;-56
2021/04/17 07:01:40;;;;;;;38.05;9.35;;;;;;;;;;4985360;28;20034;-56
2021/04/17 07:04:06;;;;;;;31.15;9.27;;;;;;;;;;4987212;28;20160;-57
2021/04/17 07:06:32;;;;;;;28.02;8.77;;;;;;;;;;4987929;28;20065;-57
2021/04/17 07:08:58;;;;;;;41.45;9.13;;;;;;;;;;4985979;28;20209;-53
2021/04/17 07:11:24;;;;;;;34.85;8.70;;;;;;;;;;4986853;28;20045;-56
2021/04/17 07:14:09;;;;;;;29.45;8.60;;;;;;;;;;4971175;28;20049;-55
2021/04/17 07:17:07;;;;;;;35.30;8.98;;;;;;;;;;4989353;28;20507;-53
2021/04/17 07:19:48;;;;;;;34.22;9.00;;;;;;;;;;4935910;28;20143;-55
2021/04/17 07:22:24;;;;;;;28.50;9.35;;;;;;;;;;4991163;28;20057;-57
2021/04/17 07:24:51;;;;;;;25.02;8.13;;;;;;;;;;4991705;28;20034;-55
2021/04/17 07:27:30;;;;;;;21.63;7.95;;;;;;;;;;4989343;28;20070;-56
2021/04/17 07:29:56;;;;;;;29.70;7.80;;;;;;;;;;4982906;28;20065;-57
2021/04/17 07:32:22;;;;;;;37.63;8.55;;;;;;;;;;4988920;28;20058;-55
2021/04/17 07:35:23;;;;;;;32.45;8.85;;;;;;;;;;4988893;28;20953;-55
2021/04/17 07:38:06;;;;;;;36.65;9.38;;;;;;;;;;4893700;29;20040;-57
2021/04/17 07:40:32;;;;;;;42.72;8.45;;;;;;;;;;4981581;28;20048;-57
2021/04/17 07:42:58;;;;;;;33.30;9.38;;;;;;;;;;4989852;28;20080;-56
2021/04/17 07:45:24;;;;;;;40.88;9.02;;;;;;;;;;4989340;28;20034;-54
2021/04/17 07:47:50;;;;;;;33.63;8.48;;;;;;;;;;4989229;28;20510;-57
2021/04/17 07:50:17;;;;;;;37.08;8.95;;;;;;;;;;4990243;28;20932;-54
2021/04/17 07:52:43;;;;;;;23.48;7.43;;;;;;;;;;4989077;28;20821;-54
2021/04/17 07:55:17;;;;;;;31.23;8.52;;;;;;;;;;4989544;28;20034;-56
2021/04/17 07:57:47;;;;;;;26.70;8.30;;;;;;;;;;4988442;28;20054;-56
2021/04/17 08:00:17;;;;;;;27.30;7.80;;;;;;;;;;4967791;28;20049;-56
2021/04/17 08:02:45;;;;;;;31.10;7.80;;;;;;;;;;4974155;28;20057;-55
2021/04/17 08:05:12;;;;;;;19.88;7.40;;;;;;;;;;4988304;28;20041;-56
2021/04/17 08:07:38;;;;;;;19.15;6.32;;;;;;;;;;4988607;28;20070;-54
2021/04/17 08:10:05;;;;;;;26.25;6.65;;;;;;;;;;4987140;28;20038;-57
2021/04/17 08:12:34;;;;;;;27.77;7.15;;;;;;;;;;4987564;28;20538;-55
2021/04/17 08:15:00;;;;;;;20.38;6.38;;;;;;;;;;4987928;28;20102;-54
2021/04/17 08:17:26;;;;;;;29.55;6.70;;;;;;;;;;4988063;28;20049;-57
2021/04/17 08:19:56;;;;;;;24.50;6.20;;;;;;;;;;4989022;28;20038;-55
2021/04/17 08:22:22;;;;;;;36.03;7.00;;;;;;;;;;4988361;28;20514;-56
2021/04/17 08:24:49;;;;;;;29.05;7.05;;;;;;;;;;4976323;28;20046;-58
2021/04/17 08:27:15;;;;;;;31.65;6.25;;;;;;;;;;4989728;28;20037;-55
2021/04/17 08:29:45;;;;;;;30.83;7.15;;;;;;;;;;4988030;28;20061;-56
2021/04/17 08:32:24;;;;;;;27.27;6.60;;;;;;;;;;4987807;28;20058;-55
2021/04/17 08:35:13;;;;;;;39.83;5.80;;;;;;;;;;4988531;28;20052;-56
2021/04/17 08:37:51;;;;;;;49.42;8.00;;;;;;;;;;4978347;28;20228;-54
2021/04/17 08:40:40;;;;;;;31.98;6.50;;;;;;;;;;4986007;28;20851;-57
2021/04/17 08:43:18;;;;;;;37.00;5.70;;;;;;;;;;4963664;28;20061;-54
2021/04/17 08:46:11;;;;;;;23.88;5.70;;;;;;;;;;4970428;28;20428;-55
2021/04/17 08:48:42;;;;;;;21.25;4.97;;;;;;;;;;4966541;28;20493;-54
2021/04/17 08:51:28;;;;;;;25.00;4.70;;;;;;;;;;4968485;28;20046;-57
2021/04/17 08:54:00;;;;;;;19.02;5.07;;;;;;;;;;4969372;28;20108;-57
2021/04/17 08:56:44;;;;;;;24.50;5.15;;;;;;;;;;4949742;28;20096;-56
2021/04/17 08:59:10;;;;;;;28.00;4.72;;;;;;;;;;4968128;28;20043;-53
2021/04/17 09:01:43;;;;;;;28.92;5.35;;;;;;;;;;4968896;28;20558;-53
2021/04/17 09:04:10;;;;;;;16.42;3.80;;;;;;;;;;4959366;28;20492;-54
2021/04/17 09:06:35;;;;;;;19.05;3.90;;;;;;;;;;4968257;28;20439;-57
2021/04/17 09:09:18;;;;;;;15.02;3.80;;;;;;;;;;4969579;28;20050;-54
2021/04/17 09:11:48;;;;;;;18.38;4.28;;;;;;;;;;4967477;28;20475;-56
2021/04/17 09:14:26;;;;;;;16.52;3.75;;;;;;;;;;4968102;28;20524;-57
2021/04/17 09:16:53;;;;;;;13.45;3.28;;;;;;;;;;4968075;28;20042;-55
2021/04/17 09:19:37;;;;;;;12.55;3.45;;;;;;;;;;4966849;28;20038;-56
2021/04/17 09:22:03;;;;;;;18.67;4.35;;;;;;;;;;4968099;28;20100;-57
2021/04/17 09:24:29;;;;;;;18.27;4.30;;;;;;;;;;4967714;28;20039;-53
2021/04/17 09:26:55;;;;;;;20.50;4.18;;;;;;;;;;4968292;28;20053;-56
2021/04/17 09:29:23;;;;;;;17.10;4.00;;;;;;;;;;4967033;28;20091;-56
2021/04/17 09:31:51;;;;;;;19.77;4.53;;;;;;;;;;4969684;28;20050;-57
2021/04/17 09:34:17;;;;;;;13.73;4.10;;;;;;;;;;4968709;28;20656;-56
2021/04/17 09:36:44;;;;;;;23.02;3.97;;;;;;;;;;4969775;28;20459;-57
2021/04/17 09:39:25;;;;;;;16.05;4.50;;;;;;;;;;4967754;28;20031;-56
2021/04/17 09:41:52;;;;;;;17.20;4.57;;;;;;;;;;4980989;28;20073;-53
2021/04/17 09:44:19;;;;;;;10.00;3.80;;;;;;;;;;4986914;28;20498;-52
2021/04/17 09:46:46;;;;;;;17.08;4.10;;;;;;;;;;4988277;28;20043;-56
2021/04/17 09:49:11;;;;;;;17.08;4.30;;;;;;;;;;4987192;28;20038;-57
2021/04/17 09:51:38;;;;;;;10.10;3.88;;;;;;;;;;4987637;28;20104;-56
2021/04/17 09:54:06;;;;;;;19.88;4.63;;;;;;;;;;4989258;28;20204;-54
2021/04/17 09:56:33;;;;;;;14.48;4.47;;;;;;;;;;4989229;28;20030;-54
2021/04/17 09:59:05;;;;;;;13.57;3.97;;;;;;;;;;4990517;28;20132;-56
2021/04/17 10:01:31;;;;;;;13.00;3.92;;;;;;;;;;4988067;28;20048;-53
2021/04/17 10:03:59;;;;;;;15.13;3.22;;;;;;;;;;4988802;28;20034;-56
2021/04/17 10:06:33;;;;;;;10.23;3.45;;;;;;;;;;4989470;28;20044;-55
2021/04/17 10:09:19;;;;;;;19.50;3.58;;;;;;;;;;4988482;28;20058;-57
2021/04/17 10:11:45;;;;;;;14.15;3.58;;;;;;;;;;4989122;28;20033;-56
2021/04/17 10:14:12;;;;;;;9.98;3.05;;;;;;;;;;4958798;28;20052;-57
2021/04/17 10:16:42;;;;;;;10.07;3.08;;;;;;;;;;4988852;28;20046;-55
2021/04/17 10:19:12;;;;;;;12.63;3.15;;;;;;;;;;4988497;28;20081;-54
2021/04/17 10:21:38;;;;;;;14.43;2.58;;;;;;;;;;4989931;28;20042;-56
2021/04/17 10:24:23;;;;;;;12.18;3.60;;;;;;;;;;4988911;28;20042;-55
2021/04/17 10:26:49;;;;;;;11.93;2.97;;;;;;;;;;4987764;28;20125;-56
2021/04/17 10:29:14;;;;;;;11.07;3.10;;;;;;;;;;4989537;28;20056;-56
2021/04/17 10:31:40;;;;;;;13.20;3.15;;;;;;;;;;4989006;28;20671;-59
2021/04/17 10:34:06;;;;;;;8.77;2.80;;;;;;;;;;4990940;28;20038;-57
2021/04/17 10:36:32;;;;;;;16.20;2.88;;;;;;;;;;4989600;28;20252;-56
2021/04/17 10:39:08;;;;;;;12.10;2.67;;;;;;;;;;4983228;28;20042;-57
2021/04/17 10:43:15;;;;;;;11.18;2.63;;;;;;;;;;5037102;27;20392;-55
2021/04/17 10:45:42;;;;;;;7.75;2.40;;;;;;;;;;5033276;28;20112;-53
2021/04/17 10:48:10;;;;;;;11.02;2.35;;;;;;;;;;5032895;28;20373;-56
2021/04/17 10:50:37;;;;;;;8.90;2.40;;;;;;;;;;5032117;28;20029;-57
2021/04/17 10:53:07;;;;;;;11.57;2.42;;;;;;;;;;5033899;28;21157;-56
2021/04/17 10:55:36;;;;;;;13.63;2.90;;;;;;;;;;5013681;28;20045;-56
2021/04/17 10:58:02;;;;;;;12.95;2.45;;;;;;;;;;5033101;28;20029;-56
2021/04/17 11:00:35;;;;;;;11.05;2.10;;;;;;;;;;5032910;28;20072;-54
2021/04/17 11:03:03;;;;;;;21.77;2.10;;;;;;;;;;5032111;28;20069;-56
2021/04/17 11:05:32;;;;;;;21.00;4.28;;;;;;;;;;5032332;28;20080;-56
2021/04/17 11:08:02;;;;;;;19.60;2.70;;;;;;;;;;5033006;28;20137;-55
2021/04/17 11:10:32;;;;;;;13.00;3.10;;;;;;;;;;5032011;28;20041;-53
2021/04/17 11:12:58;;;;;;;13.38;2.50;;;;;;;;;;5033132;28;20037;-55
2021/04/17 11:15:27;;;;;;;9.45;2.20;;;;;;;;;;5031919;28;20055;-54
2021/04/17 11:18:11;;;;;;;8.02;2.00;;;;;;;;;;5032803;28;20054;-57
2021/04/17 11:20:44;;;;;;;9.48;3.28;;;;;;;;;;5030838;28;20057;-55
2021/04/17 11:23:29;;;;;;;20.02;2.42;;;;;;;;;;5032802;28;20049;-56
2021/04/17 11:25:54;;;;;;;9.00;2.25;;;;;;;;;;5031902;28;20103;-55
2021/04/17 11:28:20;;;;;;;9.32;2.13;;;;;;;;;;5046618;28;20443;-57
2021/04/17 11:30:46;;;;;;;16.23;2.67;;;;;;;;;;5033529;28;20037;-55
2021/04/17 11:33:12;;;;;;;11.75;2.58;;;;;;;;;;5031357;28;20043;-56
2021/04/17 11:35:38;;;;;;;13.25;2.60;;;;;;;;;;5031418;28;20041;-53
2021/04/17 11:38:04;;;;;;;8.25;2.38;;;;;;;;;;5032716;28;20041;-54
2021/04/17 11:40:30;;;;;;;12.02;2.45;;;;;;;;;;5031406;28;20033;-55
2021/04/17 11:42:55;;;;;;;19.17;2.67;;;;;;;;;;5032129;28;20056;-56
2021/04/17 11:45:22;;;;;;;18.73;3.33;;;;;;;;;;5032514;28;20033;-52
2021/04/17 11:47:48;;;;;;;9.57;2.58;;;;;;;;;;5032156;28;20090;-54
2021/04/17 11:50:14;;;;;;;32.53;3.17;;;;;;;;;;5032399;28;21336;-56
2021/04/17 11:52:40;;;;;;;18.42;2.67;;;;;;;;;;5027362;28;20077;-52
2021/04/17 11:55:06;;;;;;;16.23;2.20;;;;;;;;;;5027842;28;20150;-55
2021/04/17 11:57:33;;;;;;;11.25;2.13;;;;;;;;;;5018638;28;20057;-55
2021/04/17 12:00:01;;;;;;;11.05;2.08;;;;;;;;;;5018827;28;20053;-55
2021/04/17 12:02:27;;;;;;;13.05;2.00;;;;;;;;;;5013472;28;20062;-53
2021/04/17 12:04:53;;;;;;;12.75;2.20;;;;;;;;;;5018718;28;20069;-55
2021/04/17 12:07:21;;;;;;;20.10;2.97;;;;;;;;;;5018707;28;20495;-56
2021/04/17 12:09:47;;;;;;;16.48;2.38;;;;;;;;;;5019176;28;20037;-55
2021/04/17 12:12:13;;;;;;;8.65;2.50;;;;;;;;;;5019860;28;20041;-54
2021/04/17 12:14:39;;;;;;;13.90;2.75;;;;;;;;;;5011039;28;20430;-54
2021/04/17 12:17:05;;;;;;;10.85;2.38;;;;;;;;;;5024301;28;20033;-55
2021/04/17 12:19:32;;;;;;;10.52;2.03;;;;;;;;;;5040930;28;20037;-56
2021/04/17 12:21:58;;;;;;;10.30;2.20;;;;;;;;;;5023574;28;22008;-55
2021/04/17 12:24:24;;;;;;;17.40;2.88;;;;;;;;;;5028206;28;20034;-53
2021/04/17 12:26:51;;;;;;;19.13;2.65;;;;;;;;;;5028012;28;20059;-54
2021/04/17 12:29:17;;;;;;;14.85;2.80;;;;;;;;;;5018412;28;20030;-54
2021/04/17 12:31:43;;;;;;;8.80;2.15;;;;;;;;;;5011636;28;20110;-53
2021/04/17 12:34:09;;;;;;;11.32;2.33;;;;;;;;;;5021094;28;20321;-53
2021/04/17 12:36:35;;;;;;;9.40;2.30;;;;;;;;;;5018975;28;20042;-56
2021/04/17 12:39:00;;;;;;;20.75;3.42;;;;;;;;;;5019642;28;20458;-56
2021/04/17 12:41:26;;;;;;;15.77;2.88;;;;;;;;;;5019133;28;20628;-54
2021/04/17 12:43:52;;;;;;;24.85;3.92;;;;;;;;;;5019731;28;20045;-57
2021/04/17 12:46:18;;;;;;;22.65;2.92;;;;;;;;;;5018907;28;20984;-53
2021/04/17 12:48:44;;;;;;;20.50;3.40;;;;;;;;;;5019225;28;20033;-51
2021/04/17 12:51:10;;;;;;;17.17;2.33;;;;;;;;;;5019461;28;20114;-52
2021/04/17 12:53:36;;;;;;;12.05;2.38;;;;;;;;;;5017707;28;20053;-54
2021/04/17 12:56:02;;;;;;;13.32;2.40;;;;;;;;;;5018952;28;20029;-54
2021/04/17 12:58:29;;;;;;;9.40;2.33;;;;;;;;;;5018485;28;20050;-54
2021/04/17 13:00:54;;;;;;;13.93;2.38;;;;;;;;;;5018564;28;20068;-56
2021/04/17 13:03:20;;;;;;;10.85;2.08;;;;;;;;;;5013918;28;20124;-53
2021/04/17 13:05:46;;;;;;;17.35;2.60;;;;;;;;;;5017197;28;20037;-55
2021/04/17 13:08:12;;;;;;;14.20;2.45;;;;;;;;;;5018968;28;20069;-55
2021/04/17 13:10:38;;;;;;;12.07;2.50;;;;;;;;;;5017873;28;20045;-55
2021/04/17 13:13:04;;;;;;;28.10;3.00;;;;;;;;;;5008541;28;20880;-55
2021/04/17 13:15:30;;;;;;;28.02;3.47;;;;;;;;;;5018674;28;20033;-55
2021/04/17 13:17:56;;;;;;;15.18;2.45;;;;;;;;;;5015915;28;20077;-55
2021/04/17 13:20:22;;;;;;;11.00;2.92;;;;;;;;;;5019201;28;20115;-55
2021/04/17 13:22:48;;;;;;;10.38;2.70;;;;;;;;;;5019119;28;20050;-53
2021/04/17 13:25:14;;;;;;;12.95;2.38;;;;;;;;;;5034029;28;20033;-55
2021/04/17 13:27:40;;;;;;;10.65;2.17;;;;;;;;;;5018610;28;20033;-53
2021/04/17 13:30:07;;;;;;;7.65;2.10;;;;;;;;;;5026140;28;20563;-53
2021/04/17 13:32:33;;;;;;;7.57;2.15;;;;;;;;;;5018665;28;20045;-55
2021/04/17 13:34:59;;;;;;;17.00;2.75;;;;;;;;;;5017623;28;20052;-56
2021/04/17 13:37:27;;;;;;;13.50;2.13;;;;;;;;;;5017803;28;20087;-57
2021/04/17 13:39:52;;;;;;;12.68;2.63;;;;;;;;;;5018398;28;20030;-57
2021/04/17 13:42:20;;;;;;;8.57;1.95;;;;;;;;;;5016238;28;20049;-55
2021/04/17 13:44:46;;;;;;;9.73;2.35;;;;;;;;;;5018693;28;20153;-57
2021/04/17 13:47:12;;;;;;;16.73;2.20;;;;;;;;;;5019690;28;20045;-57
2021/04/17 13:49:38;;;;;;;14.23;2.30;;;;;;;;;;5018464;28;20038;-58
2021/04/17 13:52:04;;;;;;;11.27;2.58;;;;;;;;;;5020162;28;20033;-53
2021/04/17 13:54:33;;;;;;;8.75;1.65;;;;;;;;;;5016367;28;20517;-55
2021/04/17 13:56:59;;;;;;;11.13;2.15;;;;;;;;;;5019011;28;20037;-57
2021/04/17 13:59:26;;;;;;;12.32;1.70;;;;;;;;;;5017367;28;20139;-56
2021/04/17 14:01:52;;;;;;;14.95;2.28;;;;;;;;;;5017529;28;20098;-52
2021/04/17 14:04:19;;;;;;;12.05;1.90;;;;;;;;;;5016093;28;20037;-54
2021/04/17 14:06:45;;;;;;;11.20;1.92;;;;;;;;;;5015803;28;20064;-56
2021/04/17 14:09:11;;;;;;;10.13;1.95;;;;;;;;;;5017366;28;20055;-59
2021/04/17 14:11:37;;;;;;;12.32;1.60;;;;;;;;;;5016016;28;20041;-56
2021/04/17 14:14:03;;;;;;;12.43;1.60;;;;;;;;;;5016002;28;20137;-55
2021/04/17 14:16:29;;;;;;;16.02;1.92;;;;;;;;;;5013870;28;20063;-51
2021/04/17 14:18:55;;;;;;;11.55;2.47;;;;;;;;;;5016407;28;20159;-55
2021/04/17 14:21:21;;;;;;;11.32;1.70;;;;;;;;;;5015689;28;20585;-52
2021/04/17 14:23:50;;;;;;;8.45;1.77;;;;;;;;;;5016190;28;20038;-54
2021/04/17 14:26:18;;;;;;;18.45;2.30;;;;;;;;;;5016451;28;20084;-54
2021/04/17 14:28:45;;;;;;;12.45;1.80;;;;;;;;;;5015493;28;20477;-55
2021/04/17 14:31:11;;;;;;;12.90;1.92;;;;;;;;;;5016996;28;20112;-53
2021/04/17 14:33:37;;;;;;;9.45;1.65;;;;;;;;;;5014996;28;20156;-56
2021/04/17 14:36:04;;;;;;;10.82;1.80;;;;;;;;;;5015202;28;20037;-55